createdAt,value
2018-04-08T00:00:36.903Z,62.84
2018-04-08T00:01:47.040Z,62.94
2018-04-08T00:02:57.288Z,62.75
2018-04-08T00:04:07.493Z,63.03
2018-04-08T00:05:17.688Z,63.13
2018-04-08T00:06:27.888Z,63.13
2018-04-08T00:07:38.087Z,63.03
2018-04-08T00:08:48.279Z,63.23
2018-04-08T00:09:58.422Z,63.03
2018-04-08T00:11:08.574Z,63.1
2018-04-08T00:12:18.754Z,63.13
2018-04-08T00:13:28.899Z,63.48
2018-04-08T00:14:39.053Z,63.8
2018-04-08T00:15:49.305Z,63.7
2018-04-08T00:16:59.231Z,63.8
2018-04-08T00:18:09.602Z,63.48
2018-04-08T00:19:20.092Z,63.67
2018-04-08T00:20:30.224Z,64.25
2018-04-08T00:21:40.368Z,64.34
2018-04-08T00:22:50.663Z,64.43
2018-04-08T00:24:00.854Z,64.15
2018-04-08T00:25:11.018Z,64.15
2018-04-08T00:26:21.171Z,64.15
2018-04-08T00:27:31.336Z,64.05
2018-04-08T00:28:41.583Z,64.62
2018-04-08T00:29:51.793Z,64.43
2018-04-08T00:31:01.977Z,64.53
2018-04-08T00:32:11.786Z,64.43
2018-04-08T00:33:22.045Z,64.25
2018-04-08T00:34:32.307Z,64.53
2018-04-08T00:35:42.505Z,64.62
2018-04-08T00:36:52.687Z,64.34
2018-04-08T00:38:02.620Z,64.43
2018-04-08T00:39:44.370Z,64.25
2018-04-08T00:40:54.516Z,64.43
2018-04-08T00:42:04.673Z,64.62
2018-04-08T00:43:14.954Z,64.91
2018-04-08T00:44:25.250Z,64.81
2018-04-08T00:45:35.524Z,64.91
2018-04-08T00:46:45.689Z,64.72
2018-04-08T00:47:55.915Z,64.62
2018-04-08T00:49:06.207Z,64.72
2018-04-08T00:50:16.340Z,64.72
2018-04-08T00:51:26.476Z,64.43
2018-04-08T00:52:36.409Z,64.62
2018-04-08T00:53:46.070Z,65.1
2018-04-08T00:54:55.761Z,65.3
2018-04-08T00:56:05.638Z,65.3
2018-04-08T00:57:15.710Z,64.53
2018-04-08T00:58:25.643Z,64.91
2018-04-08T00:59:35.808Z,65.1
2018-04-08T01:00:45.999Z,65.1
2018-04-08T01:01:56.237Z,64.81
2018-04-08T01:03:06.539Z,65.3
2018-04-08T01:04:16.230Z,65.39
2018-04-08T01:05:26.362Z,65.39
2018-04-08T01:06:36.509Z,65.3
2018-04-08T01:07:46.368Z,65.39
2018-04-08T01:08:56.572Z,65.48
2018-04-08T01:10:06.518Z,65.26
2018-04-08T01:11:16.460Z,65.2
2018-04-08T01:12:26.631Z,65.2
2018-04-08T01:13:36.826Z,65.45
2018-04-08T01:14:46.727Z,65.36
2018-04-08T01:15:56.629Z,65.74
2018-04-08T01:17:06.481Z,65.87
2018-04-08T01:18:16.674Z,65.26
2018-04-08T01:19:26.817Z,65.17
2018-04-08T01:20:36.868Z,65.87
2018-04-08T01:21:47.052Z,65.64
2018-04-08T01:22:57.227Z,65.74
2018-04-08T01:24:07.113Z,65.64
2018-04-08T01:25:17.265Z,65.64
2018-04-08T01:26:27.539Z,65.64
2018-04-08T01:27:37.751Z,65.83
2018-04-08T01:28:47.670Z,65.93
2018-04-08T01:29:58.029Z,65.83
2018-04-08T01:31:08.236Z,65.93
2018-04-08T01:32:18.440Z,65.64
2018-04-08T01:33:28.566Z,65.83
2018-04-08T01:34:38.715Z,65.83
2018-04-08T01:35:48.882Z,66.12
2018-04-08T01:36:59.030Z,65.83
2018-04-08T01:38:09.213Z,65.74
2018-04-08T01:39:19.403Z,66.22
2018-04-08T01:40:29.569Z,65.93
2018-04-08T01:41:39.745Z,65.83
2018-04-08T01:42:49.963Z,66.22
2018-04-08T01:43:59.848Z,66.5
2018-04-08T01:45:09.980Z,66.41
2018-04-08T01:46:19.487Z,66.22
2018-04-08T01:47:29.383Z,66.22
2018-04-08T01:48:39.275Z,66.31
2018-04-08T01:49:49.460Z,66.69
2018-04-08T01:50:59.070Z,66.6
2018-04-08T01:52:09.277Z,66.6
2018-04-08T01:53:19.455Z,66.78
2018-04-08T01:54:29.706Z,66.78
2018-04-08T01:55:39.609Z,66.69
2018-04-08T01:56:49.804Z,66.69
2018-04-08T01:57:59.941Z,66.41
2018-04-08T01:59:11.228Z,66.56
2018-04-08T02:00:21.403Z,66.85
2018-04-08T02:01:31.587Z,67.23
2018-04-08T02:02:41.775Z,67.04
2018-04-08T02:03:51.991Z,67.14
2018-04-08T02:05:02.236Z,66.85
2018-04-08T02:06:12.525Z,67.04
2018-04-08T02:07:22.811Z,66.85
2018-04-08T02:08:33.029Z,66.98
2018-04-08T02:09:43.274Z,67.04
2018-04-08T02:10:53.088Z,67.07
2018-04-08T02:12:03.244Z,67.33
2018-04-08T02:13:13.364Z,67.33
2018-04-08T02:14:23.602Z,67.42
2018-04-08T02:15:33.819Z,67.23
2018-04-08T02:16:44.104Z,67.61
2018-04-08T02:17:54.244Z,67.52
2018-04-08T02:19:04.407Z,67.42
2018-04-08T02:20:14.067Z,67.61
2018-04-08T02:21:24.281Z,67.61
2018-04-08T02:22:34.451Z,67.61
2018-04-08T02:23:44.599Z,67.8
2018-04-08T02:24:54.151Z,67.8
2018-04-08T02:26:04.419Z,67.71
2018-04-08T02:27:13.967Z,67.8
2018-04-08T02:28:23.880Z,68.18
2018-04-08T02:29:34.060Z,67.8
2018-04-08T02:30:44.251Z,68.09
2018-04-08T02:31:54.589Z,67.8
2018-04-08T02:33:04.467Z,67.8
2018-04-08T02:34:14.285Z,67.99
2018-04-08T02:35:24.445Z,67.9
2018-04-08T02:36:34.620Z,67.8
2018-04-08T02:37:44.764Z,67.71
2018-04-08T02:38:54.938Z,68.18
2018-04-08T02:40:04.763Z,68.18
2018-04-08T02:41:14.764Z,68.18
2018-04-08T02:42:24.882Z,67.99
2018-04-08T02:43:35.037Z,68.28
2018-04-08T02:44:44.693Z,68.18
2018-04-08T02:45:54.490Z,68.38
2018-04-08T02:47:04.637Z,68.28
2018-04-08T02:48:14.756Z,68.38
2018-04-08T02:49:24.377Z,68.38
2018-04-08T02:50:34.250Z,68.28
2018-04-08T02:51:44.213Z,68.38
2018-04-08T02:52:54.098Z,68.38
2018-04-08T02:54:04.300Z,68.47
2018-04-08T02:55:14.179Z,68.47
2018-04-08T02:56:24.054Z,68.38
2018-04-08T02:57:34.187Z,68.18
2018-04-08T02:58:44.337Z,68.28
2018-04-08T02:59:53.985Z,68.47
2018-04-08T03:01:03.908Z,68.28
2018-04-08T03:02:14.067Z,68.57
2018-04-08T03:03:23.656Z,68.57
2018-04-08T03:04:33.600Z,68.85
2018-04-08T03:05:43.786Z,68.53
2018-04-08T03:06:53.932Z,68.76
2018-04-08T03:08:04.077Z,68.72
2018-04-08T03:09:14.354Z,68.82
2018-04-08T03:10:24.506Z,68.76
2018-04-08T03:11:34.891Z,68.66
2018-04-08T03:12:44.912Z,69.29
2018-04-08T03:13:54.782Z,68.66
2018-04-08T03:15:04.943Z,69.04
2018-04-08T03:16:15.241Z,69.23
2018-04-08T03:17:24.590Z,69.58
2018-04-08T03:18:34.765Z,69.29
2018-04-08T03:19:44.917Z,69.1
2018-04-08T03:20:54.815Z,69.2
2018-04-08T03:22:04.340Z,69.29
2018-04-08T03:23:15.205Z,69.58
2018-04-08T03:24:25.056Z,69.58
2018-04-08T03:25:34.968Z,69.39
2018-04-08T03:26:45.245Z,69.39
2018-04-08T03:27:55.118Z,69.96
2018-04-08T03:29:05.247Z,70.06
2018-04-08T03:30:15.170Z,69.77
2018-04-08T03:31:25.314Z,69.77
2018-04-08T03:32:35.392Z,70.15
2018-04-08T03:33:45.301Z,69.77
2018-04-08T03:34:55.431Z,70.06
2018-04-08T03:36:05.073Z,69.39
2018-04-08T03:37:14.942Z,70.15
2018-04-08T03:38:25.110Z,69.58
2018-04-08T03:39:35.262Z,69.87
2018-04-08T03:40:45.405Z,70.15
2018-04-08T03:41:55.161Z,69.96
2018-04-08T03:43:05.400Z,69.77
2018-04-08T03:44:15.748Z,69.87
2018-04-08T03:45:25.912Z,69.87
2018-04-08T03:46:36.070Z,69.87
2018-04-08T03:47:46.302Z,69.77
2018-04-08T03:48:56.197Z,70.34
2018-04-08T03:50:05.974Z,70.06
2018-04-08T03:51:16.109Z,70.15
2018-04-08T03:52:26.276Z,70.25
2018-04-08T03:53:36.175Z,70.15
2018-04-08T03:54:46.338Z,70.25
2018-04-08T03:55:56.461Z,70.25
2018-04-08T03:57:06.595Z,70.34
2018-04-08T03:58:16.222Z,70.53
2018-04-08T03:59:26.466Z,70.44
2018-04-08T04:00:36.743Z,70.44
2018-04-08T04:01:46.626Z,70.25
2018-04-08T04:02:56.770Z,70.25
2018-04-08T04:04:06.929Z,70.25
2018-04-08T04:05:16.840Z,70.15
2018-04-08T04:06:27.028Z,70.34
2018-04-08T04:07:37.149Z,70.06
2018-04-08T04:08:47.438Z,70.72
2018-04-08T04:09:57.610Z,70.69
2018-04-08T04:11:07.791Z,70.72
2018-04-08T04:12:17.677Z,70.53
2018-04-08T04:13:27.803Z,70.92
2018-04-08T04:14:37.972Z,71.01
2018-04-08T04:15:48.183Z,70.97
2018-04-08T04:16:58.083Z,70.97
2018-04-08T04:18:08.223Z,71.07
2018-04-08T04:19:18.381Z,71.07
2018-04-08T04:20:28.586Z,71.01
2018-04-08T04:21:38.564Z,70.92
2018-04-08T04:22:48.695Z,70.72
2018-04-08T04:23:58.210Z,70.53
2018-04-08T04:25:08.390Z,70.82
2018-04-08T04:26:18.385Z,70.92
2018-04-08T04:27:28.285Z,70.72
2018-04-08T04:28:38.449Z,71.11
2018-04-08T04:29:48.579Z,70.88
2018-04-08T04:30:58.738Z,70.82
2018-04-08T04:32:08.785Z,70.88
2018-04-08T04:33:18.679Z,70.78
2018-04-08T04:34:28.555Z,70.69
2018-04-08T04:35:39.035Z,70.69
2018-04-08T04:36:48.691Z,70.97
2018-04-08T04:37:58.582Z,70.78
2018-04-08T04:39:08.503Z,70.78
2018-04-08T04:40:18.678Z,70.69
2018-04-08T04:41:28.568Z,70.88
2018-04-08T04:42:38.472Z,70.69
2018-04-08T04:43:48.631Z,70.69
2018-04-08T04:44:58.491Z,70.78
2018-04-08T04:46:08.276Z,70.78
2018-04-08T04:47:18.204Z,71.55
2018-04-08T04:48:28.073Z,71.64
2018-04-08T04:49:38.236Z,71.26
2018-04-08T04:50:48.150Z,71.55
2018-04-08T04:51:58.299Z,71.55
2018-04-08T04:53:08.490Z,71.26
2018-04-08T04:54:18.359Z,71.07
2018-04-08T04:55:28.518Z,71.36
2018-04-08T04:56:38.654Z,71.07
2018-04-08T04:57:48.547Z,71.64
2018-04-08T04:58:58.687Z,71.36
2018-04-08T05:00:08.821Z,71.36
2018-04-08T05:01:19.024Z,71.83
2018-04-08T05:02:29.222Z,71.83
2018-04-08T05:03:39.141Z,71.73
2018-04-08T05:04:49.238Z,71.55
2018-04-08T05:05:58.942Z,72.12
2018-04-08T05:07:08.555Z,72.21
2018-04-08T05:08:18.725Z,72.02
2018-04-08T05:09:28.630Z,72.02
2018-04-08T05:10:38.790Z,72.02
2018-04-08T05:11:48.942Z,72.02
2018-04-08T05:12:58.819Z,72.21
2018-04-08T05:14:09.070Z,72.02
2018-04-08T05:15:18.951Z,72.02
2018-04-08T05:16:29.150Z,71.93
2018-04-08T05:17:39.315Z,72.02
2018-04-08T05:18:49.488Z,71.83
2018-04-08T05:19:59.658Z,71.93
2018-04-08T05:21:09.565Z,72.5
2018-04-08T05:22:19.740Z,72.21
2018-04-08T05:23:29.873Z,72.12
2018-04-08T05:24:40.056Z,72.21
2018-04-08T05:25:50.020Z,72.69
2018-04-08T05:26:59.537Z,72.88
2018-04-08T05:28:09.776Z,72.6
2018-04-08T05:29:19.647Z,72.6
2018-04-08T05:30:29.785Z,72.88
2018-04-08T05:31:39.923Z,72.88
2018-04-08T05:32:49.824Z,72.69
2018-04-08T05:33:59.534Z,72.88
2018-04-08T05:35:09.355Z,72.78
2018-04-08T05:36:19.386Z,72.21
2018-04-08T05:37:29.321Z,72.12
2018-04-08T05:38:39.509Z,72.78
2018-04-08T05:39:49.650Z,72.69
2018-04-08T05:40:59.633Z,72.88
2018-04-08T05:42:09.913Z,72.88
2018-04-08T05:43:19.802Z,72.88
2018-04-08T05:44:29.982Z,72.69
2018-04-08T05:45:40.012Z,72.88
2018-04-08T05:46:50.159Z,72.69
2018-04-08T05:48:00.301Z,72.88
2018-04-08T05:49:10.449Z,72.69
2018-04-08T05:50:20.240Z,72.88
2018-04-08T05:51:30.257Z,72.88
2018-04-08T05:52:40.168Z,72.69
2018-04-08T05:53:49.891Z,72.69
2018-04-08T05:55:00.093Z,72.88
2018-04-08T05:56:10.004Z,72.78
2018-04-08T05:57:20.186Z,72.69
2018-04-08T05:58:30.365Z,72.69
2018-04-08T05:59:40.566Z,72.6
2018-04-08T06:00:50.426Z,72.69
2018-04-08T06:02:00.196Z,72.5
2018-04-08T06:03:10.657Z,72.6
2018-04-08T06:04:20.811Z,72.88
2018-04-08T06:05:30.724Z,72.78
2018-04-08T06:06:40.884Z,72.88
2018-04-08T06:07:51.043Z,72.78
2018-04-08T06:09:01.196Z,72.72
2018-04-08T06:10:11.192Z,72.92
2018-04-08T06:11:21.621Z,72.82
2018-04-08T06:12:31.533Z,72.82
2018-04-08T06:13:41.473Z,73.11
2018-04-08T06:14:51.728Z,73.11
2018-04-08T06:16:01.649Z,72.82
2018-04-08T06:17:11.521Z,72.92
2018-04-08T06:18:21.747Z,73.3
2018-04-08T06:19:31.899Z,73.11
2018-04-08T06:20:41.921Z,72.72
2018-04-08T06:21:52.233Z,73.21
2018-04-08T06:23:02.490Z,73.01
2018-04-08T06:24:12.629Z,72.92
2018-04-08T06:25:22.781Z,73.11
2018-04-08T06:26:33.030Z,72.72
2018-04-08T06:27:43.290Z,72.92
2018-04-08T06:28:53.155Z,72.53
2018-04-08T06:30:03.199Z,72.72
2018-04-08T06:31:12.843Z,72.53
2018-04-08T06:32:23.194Z,72.82
2018-04-08T06:33:33.494Z,72.72
2018-04-08T06:34:43.706Z,72.86
2018-04-08T06:35:53.892Z,72.09
2018-04-08T06:37:04.130Z,72.67
2018-04-08T06:38:14.402Z,72.48
2018-04-08T06:39:24.570Z,72.09
2018-04-08T06:40:34.755Z,72.09
2018-04-08T06:41:44.911Z,72.19
2018-04-08T06:42:54.796Z,71.91
2018-04-08T06:44:04.925Z,71.81
2018-04-08T06:45:15.191Z,71.81
2018-04-08T06:46:25.354Z,71.72
2018-04-08T06:47:35.536Z,71.81
2018-04-08T06:48:45.425Z,72
2018-04-08T06:49:55.607Z,71.33
2018-04-08T06:51:05.828Z,71.52
2018-04-08T06:52:15.732Z,71.52
2018-04-08T06:53:25.875Z,71.27
2018-04-08T06:54:35.781Z,71.18
2018-04-08T06:55:45.677Z,71.18
2018-04-08T06:56:55.960Z,71.08
2018-04-08T06:58:05.788Z,70.89
2018-04-08T06:59:15.980Z,70.7
2018-04-08T07:00:26.148Z,70.89
2018-04-08T07:01:36.072Z,70.79
2018-04-08T07:02:45.884Z,71.08
2018-04-08T07:03:55.715Z,70.98
2018-04-08T07:05:05.632Z,70.89
2018-04-08T07:06:15.851Z,70.7
2018-04-08T07:07:25.477Z,70.64
2018-04-08T07:08:35.331Z,70.83
2018-04-08T07:09:45.501Z,70.16
2018-04-08T07:10:55.707Z,70.36
2018-04-08T07:12:05.746Z,69.87
2018-04-08T07:13:16.140Z,69.87
2018-04-08T07:14:27.304Z,70.07
2018-04-08T07:15:37.562Z,69.97
2018-04-08T07:16:47.845Z,69.97
2018-04-08T07:17:58.081Z,69.97
2018-04-08T07:19:08.238Z,69.87
2018-04-08T07:20:18.416Z,69.4
2018-04-08T07:21:28.638Z,69.11
2018-04-08T07:22:38.880Z,69.4
2018-04-08T07:23:49.062Z,69.15
2018-04-08T07:24:58.843Z,69.24
2018-04-08T07:26:08.762Z,68.86
2018-04-08T07:27:18.990Z,68.86
2018-04-08T07:28:29.201Z,68.48
2018-04-08T07:29:39.384Z,68.29
2018-04-08T07:30:50.402Z,68.29
2018-04-08T07:32:00.261Z,67.91
2018-04-08T07:33:10.216Z,68.19
2018-04-08T07:34:20.238Z,67.62
2018-04-08T07:35:30.347Z,67.91
2018-04-08T07:36:40.237Z,67.62
2018-04-08T07:37:50.179Z,67.65
2018-04-08T07:39:00.400Z,66.85
2018-04-08T07:40:10.283Z,67.27
2018-04-08T07:41:20.512Z,67.18
2018-04-08T07:42:30.698Z,66.7
2018-04-08T07:43:40.905Z,66.79
2018-04-08T07:44:51.054Z,66.13
2018-04-08T07:46:00.930Z,65.93
2018-04-08T07:47:10.865Z,66.13
2018-04-08T07:48:21.303Z,65.64
2018-04-08T07:49:31.522Z,65.74
2018-04-08T07:50:41.728Z,65.3
2018-04-08T07:51:51.942Z,65.3
2018-04-08T07:53:02.105Z,65.01
2018-04-08T07:54:12.297Z,64.72
2018-04-08T07:55:22.570Z,64.53
2018-04-08T07:56:32.833Z,64.28
2018-04-08T07:57:43.054Z,63.99
2018-04-08T07:58:53.292Z,63.89
2018-04-08T08:00:03.538Z,63.54
2018-04-08T08:01:13.754Z,62.71
2018-04-08T08:02:23.962Z,61.91
2018-04-08T08:03:34.123Z,60.15
2018-04-08T08:04:44.297Z,58.48
2018-04-08T08:05:54.581Z,55.73
2018-04-08T08:07:04.799Z,55.3
2018-04-08T08:08:15.687Z,53.69
2018-04-08T08:09:27.239Z,52.85
2018-04-08T08:10:37.639Z,51.62
2018-04-08T08:11:47.824Z,50.21
2018-04-08T08:12:57.990Z,49.17
2018-04-08T08:14:08.166Z,48.59
2018-04-08T08:15:18.340Z,47.94
2018-04-08T08:16:28.517Z,46.23
2018-04-08T08:17:38.843Z,45.94
2018-04-08T08:18:49.224Z,45.17
2018-04-08T08:19:59.395Z,44.9
2018-04-08T08:21:09.613Z,43.93
2018-04-08T08:22:19.828Z,43.28
2018-04-08T08:23:30.088Z,43.08
2018-04-08T08:24:41.170Z,42.6
2018-04-08T08:25:51.529Z,42.6
2018-04-08T08:27:01.708Z,42.52
2018-04-08T08:28:11.901Z,41.75
2018-04-08T08:29:21.902Z,40.78
2018-04-08T08:30:32.124Z,41.17
2018-04-08T08:31:42.306Z,40.98
2018-04-08T08:32:52.560Z,40.59
2018-04-08T08:34:02.861Z,40.03
2018-04-08T08:35:12.773Z,40.13
2018-04-08T08:36:22.880Z,39.45
2018-04-08T08:37:33.075Z,39.67
2018-04-08T08:38:42.978Z,39.47
2018-04-08T08:39:53.723Z,38.5
2018-04-08T08:41:03.895Z,38.7
2018-04-08T08:42:14.004Z,38.6
2018-04-08T08:43:24.822Z,38.41
2018-04-08T08:44:35.033Z,38.21
2018-04-08T08:45:45.424Z,38.04
2018-04-08T08:46:55.917Z,37.85
2018-04-08T08:48:06.900Z,37.67
2018-04-08T08:49:17.204Z,37.67
2018-04-08T08:50:27.150Z,37.57
2018-04-08T08:51:37.133Z,36.52
2018-04-08T08:52:47.419Z,36.35
2018-04-08T08:53:57.661Z,35.96
2018-04-08T08:55:07.574Z,35.66
2018-04-08T08:56:17.752Z,35.75
2018-04-08T08:57:28.140Z,35.66
2018-04-08T08:58:38.152Z,36.04
2018-04-08T08:59:48.277Z,36.12
2018-04-08T09:00:58.197Z,36.22
2018-04-08T09:02:09.498Z,35.94
2018-04-08T09:03:22.274Z,35.56
2018-04-08T09:04:39.809Z,34.89
2018-04-08T09:05:49.733Z,34.41
2018-04-08T09:07:00.171Z,34.22
2018-04-08T09:08:10.150Z,34.41
2018-04-08T09:09:20.135Z,34.41
2018-04-08T09:10:30.346Z,34.49
2018-04-08T09:11:41.040Z,34.51
2018-04-08T09:12:51.759Z,33.92
2018-04-08T09:14:01.612Z,33.83
2018-04-08T09:15:11.931Z,34.02
2018-04-08T09:16:22.123Z,33.81
2018-04-08T09:17:32.109Z,33.83
2018-04-08T09:18:42.337Z,34.39
2018-04-08T09:19:52.905Z,33.92
2018-04-08T09:21:02.882Z,33.83
2018-04-08T09:22:13.411Z,33.72
2018-04-08T09:23:23.596Z,33.91
2018-04-08T09:24:33.775Z,33.91
2018-04-08T09:25:44.026Z,33.72
2018-04-08T09:26:54.034Z,34.38
2018-04-08T09:28:04.434Z,34.38
2018-04-08T09:29:14.724Z,34.38
2018-04-08T09:30:26.211Z,34.67
2018-04-08T09:31:36.395Z,34.38
2018-04-08T09:32:46.323Z,34.57
2018-04-08T09:33:56.245Z,34.38
2018-04-08T09:35:06.714Z,34.39
2018-04-08T09:36:18.070Z,34.39
2018-04-08T09:37:28.442Z,34.28
2018-04-08T09:38:38.668Z,34.38
2018-04-08T09:39:48.938Z,34.47
2018-04-08T09:40:59.189Z,34.38
2018-04-08T09:42:09.648Z,34.57
2018-04-08T09:43:19.592Z,34.09
2018-04-08T09:44:29.430Z,33.81
2018-04-08T09:45:39.707Z,33.15
2018-04-08T09:46:49.963Z,32.49
2018-04-08T09:48:00.170Z,32.96
2018-04-08T09:49:10.021Z,33.15
2018-04-08T09:50:20.233Z,33.25
2018-04-08T09:51:30.426Z,32.67
2018-04-08T09:52:40.619Z,33.07
2018-04-08T09:53:50.860Z,32.49
2018-04-08T09:55:01.140Z,31.82
2018-04-08T09:56:11.527Z,31.82
2018-04-08T09:57:21.772Z,31.82
2018-04-08T09:58:32.005Z,32.12
2018-04-08T09:59:41.946Z,32
2018-04-08T10:00:51.993Z,32.49
2018-04-08T10:02:02.245Z,32.21
2018-04-08T10:03:12.430Z,31.63
2018-04-08T10:04:22.627Z,31.62
2018-04-08T10:05:32.795Z,32.1
2018-04-08T10:06:43.008Z,31.91
2018-04-08T10:07:53.520Z,32.28
2018-04-08T10:09:22.179Z,32.94
2018-04-08T10:10:33.336Z,32.46
2018-04-08T10:11:43.285Z,33.04
2018-04-08T10:12:53.448Z,33.22
2018-04-08T10:14:03.487Z,33.31
2018-04-08T10:15:13.087Z,33.12
2018-04-08T10:16:23.409Z,33.02
2018-04-08T10:17:33.166Z,33.31
2018-04-08T10:18:43.299Z,33.59
2018-04-08T10:19:53.613Z,33.69
2018-04-08T10:21:03.848Z,33.87
2018-04-08T10:22:13.811Z,33.78
2018-04-08T10:23:24.069Z,33.7
2018-04-08T10:24:34.033Z,33.41
2018-04-08T10:25:44.205Z,33.51
2018-04-08T10:26:54.118Z,33.6
2018-04-08T10:28:04.603Z,32.84
2018-04-08T10:29:15.058Z,33.23
2018-04-08T10:30:25.686Z,33.42
2018-04-08T10:31:35.902Z,33.42
2018-04-08T10:32:46.164Z,33.23
2018-04-08T10:33:55.842Z,33.15
2018-04-08T10:35:06.067Z,33.06
2018-04-08T10:36:16.008Z,33.06
2018-04-08T10:37:26.374Z,32.59
2018-04-08T10:38:36.823Z,32.2
2018-04-08T10:39:48.184Z,32.6
2018-04-08T10:41:02.847Z,32.02
2018-04-08T10:42:13.318Z,31.73
2018-04-08T10:43:23.295Z,31.55
2018-04-08T10:44:33.470Z,31.35
2018-04-08T10:45:43.742Z,31.16
2018-04-08T10:46:54.489Z,31.07
2018-04-08T10:48:04.772Z,30.76
2018-04-08T10:49:15.078Z,30.85
2018-04-08T10:50:25.697Z,31.34
2018-04-08T10:51:36.139Z,31.42
2018-04-08T10:52:50.023Z,31.24
2018-04-08T10:54:00.213Z,30.66
2018-04-08T10:55:10.508Z,30.48
2018-04-08T10:56:20.759Z,30.76
2018-04-08T10:57:30.959Z,30.74
2018-04-08T10:58:41.193Z,30.94
2018-04-08T10:59:51.513Z,30.94
2018-04-08T11:01:01.715Z,31.13
2018-04-08T11:02:11.919Z,31.52
2018-04-08T11:03:22.621Z,31.23
2018-04-08T11:04:33.585Z,31.04
2018-04-08T11:05:44.185Z,30.94
2018-04-08T11:06:54.869Z,31.23
2018-04-08T11:08:05.212Z,31.23
2018-04-08T11:09:15.684Z,30.74
2018-04-08T11:10:25.950Z,30.74
2018-04-08T11:11:36.206Z,30.84
2018-04-08T11:12:46.734Z,31.04
2018-04-08T11:13:56.995Z,30.92
2018-04-08T11:15:07.382Z,31.04
2018-04-08T11:16:17.593Z,30.84
2018-04-08T11:17:27.850Z,30.74
2018-04-08T11:18:38.028Z,30.65
2018-04-08T11:19:48.217Z,30.65
2018-04-08T11:20:58.504Z,30.74
2018-04-08T11:22:08.713Z,30.65
2018-04-08T11:23:18.968Z,30.66
2018-04-08T11:24:29.223Z,30.27
2018-04-08T11:25:39.438Z,30.26
2018-04-08T11:26:49.678Z,30.35
2018-04-08T11:27:59.895Z,30.55
2018-04-08T11:29:10.284Z,30.55
2018-04-08T11:30:20.614Z,30.07
2018-04-08T11:31:31.049Z,29.97
2018-04-08T11:32:41.468Z,30.07
2018-04-08T11:33:51.881Z,30.26
2018-04-08T11:35:02.078Z,30.73
2018-04-08T11:36:12.365Z,30.73
2018-04-08T11:37:22.653Z,30.82
2018-04-08T11:38:32.919Z,30.92
2018-04-08T11:39:42.868Z,31.04
2018-04-08T11:40:53.065Z,30.55
2018-04-08T11:42:03.285Z,30.65
2018-04-08T11:43:13.511Z,30.63
2018-04-08T11:44:23.962Z,30.63
2018-04-08T11:45:34.167Z,30.73
2018-04-08T11:46:44.398Z,31.02
2018-04-08T11:47:54.638Z,31.39
2018-04-08T11:49:04.991Z,31.59
2018-04-08T11:50:14.854Z,31.79
2018-04-08T11:51:24.846Z,31.41
2018-04-08T11:52:34.927Z,31.31
2018-04-08T11:53:45.203Z,31.12
2018-04-08T11:54:55.414Z,31.02
2018-04-08T11:56:05.424Z,31.02
2018-04-08T11:57:15.358Z,30.94
2018-04-08T11:58:25.226Z,30.84
2018-04-08T11:59:35.223Z,30.92
2018-04-08T12:01:59.015Z,30.65
2018-04-08T12:03:14.315Z,30.92
2018-04-08T12:04:24.564Z,31.12
2018-04-08T12:05:34.135Z,31.21
2018-04-08T12:06:44.076Z,31.23
2018-04-08T12:07:54.347Z,31.31
2018-04-08T12:09:04.439Z,31.41
2018-04-08T12:10:14.411Z,31.7
2018-04-08T12:11:24.356Z,31.7
2018-04-08T12:12:34.599Z,32.28
2018-04-08T12:13:44.876Z,31.79
2018-04-08T12:14:55.115Z,31.42
2018-04-08T12:16:05.377Z,31.23
2018-04-08T12:17:15.593Z,31.04
2018-04-08T12:18:25.385Z,31.04
2018-04-08T12:19:35.329Z,30.65
2018-04-08T12:20:45.566Z,30.84
2018-04-08T12:21:55.848Z,30.35
2018-04-08T12:23:06.111Z,30.35
2018-04-08T12:24:16.307Z,30.07
2018-04-08T12:25:26.567Z,30.07
2018-04-08T12:26:37.309Z,30.34
2018-04-08T12:27:51.257Z,30.34
2018-04-08T12:29:01.525Z,30.44
2018-04-08T12:30:11.494Z,30.54
2018-04-08T12:31:21.774Z,30.52
2018-04-08T12:32:31.844Z,30.52
2018-04-08T12:33:41.855Z,31.01
2018-04-08T12:34:52.134Z,31.1
2018-04-08T12:36:02.711Z,31.29
2018-04-08T12:37:13.023Z,31.28
2018-04-08T12:38:23.221Z,31.47
2018-04-08T12:39:33.734Z,31.67
2018-04-08T12:40:43.991Z,31.67
2018-04-08T12:41:54.399Z,31.57
2018-04-08T12:43:04.341Z,31.47
2018-04-08T12:44:14.235Z,31.86
2018-04-08T12:45:24.685Z,31.67
2018-04-08T12:46:34.905Z,32.15
2018-04-08T12:47:45.111Z,32.06
2018-04-08T12:48:55.312Z,32.23
2018-04-08T12:50:05.215Z,32.33
2018-04-08T12:51:14.528Z,32.42
2018-04-08T12:52:24.831Z,32.23
2018-04-08T12:53:35.326Z,32.62
2018-04-08T12:54:45.991Z,32.42
2018-04-08T12:55:56.219Z,32.81
2018-04-08T12:57:06.425Z,32.23
2018-04-08T12:58:16.636Z,33.01
2018-04-08T12:59:27.501Z,32.91
2018-04-08T13:00:37.740Z,32.91
2018-04-08T13:01:48.354Z,33.1
2018-04-08T13:02:59.013Z,32.7
2018-04-08T13:04:09.248Z,33.09
2018-04-08T13:05:19.546Z,32.79
2018-04-08T13:06:29.860Z,33.28
2018-04-08T13:07:40.102Z,33.55
2018-04-08T13:08:50.593Z,33.45
2018-04-08T13:10:00.838Z,34.33
2018-04-08T13:11:11.068Z,34.21
2018-04-08T13:12:21.316Z,34.5
2018-04-08T13:13:31.509Z,34.6
2018-04-08T13:14:41.475Z,34.42
2018-04-08T13:15:51.836Z,34.5
2018-04-08T13:17:02.124Z,34.5
2018-04-08T13:18:12.406Z,34.79
2018-04-08T13:19:22.619Z,35.08
2018-04-08T13:20:32.894Z,35.08
2018-04-08T13:21:42.598Z,34.97
2018-04-08T13:22:52.858Z,35.45
2018-04-08T13:24:03.070Z,35.64
2018-04-08T13:25:13.299Z,35.64
2018-04-08T13:26:23.695Z,35.72
2018-04-08T13:27:34.039Z,36.21
2018-04-08T13:28:44.027Z,36.01
2018-04-08T13:29:54.234Z,36.11
2018-04-08T13:31:04.464Z,35.92
2018-04-08T13:32:14.507Z,36.21
2018-04-08T13:33:25.704Z,36.4
2018-04-08T13:34:35.622Z,36.21
2018-04-08T13:35:45.822Z,36.5
2018-04-08T13:36:55.788Z,36.5
2018-04-08T13:38:05.612Z,36.3
2018-04-08T13:39:15.856Z,36.3
2018-04-08T13:40:26.435Z,36.48
2018-04-08T13:41:36.380Z,36.57
2018-04-08T13:42:46.256Z,36.67
2018-04-08T13:43:56.546Z,36.67
2018-04-08T13:45:06.819Z,36.48
2018-04-08T13:46:17.083Z,36.48
2018-04-08T13:47:26.984Z,36.77
2018-04-08T13:48:36.948Z,36.67
2018-04-08T13:49:46.960Z,36.77
2018-04-08T13:50:57.141Z,36.67
2018-04-08T13:52:07.369Z,36.77
2018-04-08T13:53:17.122Z,36.77
2018-04-08T13:54:27.150Z,36.87
2018-04-08T13:55:37.033Z,36.96
2018-04-08T13:56:46.711Z,37.15
2018-04-08T13:57:56.933Z,37.06
2018-04-08T13:59:07.136Z,37.54
2018-04-08T14:00:17.348Z,37.06
2018-04-08T14:01:27.653Z,36.87
2018-04-08T14:02:37.956Z,36.67
2018-04-08T14:03:48.137Z,36.67
2018-04-08T14:04:58.066Z,36.38
2018-04-08T14:06:08.006Z,36.29
2018-04-08T14:07:18.568Z,36.48
2018-04-08T14:08:28.888Z,36.48
2018-04-08T14:09:39.160Z,36.48
2018-04-08T14:10:49.358Z,36.48
2018-04-08T14:11:59.577Z,36.46
2018-04-08T14:13:09.761Z,36.36
2018-04-08T14:14:20.080Z,36.48
2018-04-08T14:15:29.956Z,36.57
2018-04-08T14:16:39.823Z,36.57
2018-04-08T14:17:50.017Z,36.55
2018-04-08T14:19:00.249Z,36.46
2018-04-08T14:20:10.553Z,36.65
2018-04-08T14:21:20.828Z,36.48
2018-04-08T14:22:31.058Z,36.48
2018-04-08T14:23:40.944Z,36.87
2018-04-08T14:24:50.695Z,36.77
2018-04-08T14:26:00.697Z,36.57
2018-04-08T14:27:10.887Z,36.75
2018-04-08T14:28:20.796Z,36.77
2018-04-08T14:29:31.002Z,36.67
2018-04-08T14:30:41.279Z,36.67
2018-04-08T14:31:51.248Z,36.67
2018-04-08T14:33:01.473Z,36.77
2018-04-08T14:34:10.825Z,36.94
2018-04-08T14:35:20.446Z,37.52
2018-04-08T14:36:30.096Z,36.94
2018-04-08T14:37:40.147Z,36.75
2018-04-08T14:38:50.373Z,37.04
2018-04-08T14:40:00.565Z,36.65
2018-04-08T14:41:10.526Z,36.75
2018-04-08T14:42:20.242Z,36.75
2018-04-08T14:43:30.251Z,36.75
2018-04-08T14:44:40.494Z,36.85
2018-04-08T14:45:50.709Z,36.55
2018-04-08T14:47:00.928Z,36.46
2018-04-08T14:48:11.163Z,36.46
2018-04-08T14:49:21.661Z,36.65
2018-04-08T14:50:31.915Z,36.55
2018-04-08T14:51:42.193Z,36.55
2018-04-08T14:52:52.429Z,37.23
2018-04-08T14:54:02.732Z,37.31
2018-04-08T14:55:12.764Z,37.33
2018-04-08T14:56:22.768Z,37.23
2018-04-08T14:57:33.757Z,37.23
2018-04-08T14:58:44.096Z,37.52
2018-04-08T14:59:54.718Z,37.52
2018-04-08T15:01:04.949Z,37.5
2018-04-08T15:02:15.202Z,38.39
2018-04-08T15:03:25.082Z,37.98
2018-04-08T15:04:34.684Z,38.18
2018-04-08T15:05:45.007Z,38.46
2018-04-08T15:06:55.265Z,38.76
2018-04-08T15:08:05.310Z,39.04
2018-04-08T15:09:15.242Z,39.24